sensor_id;sensor_type;location;lat;lon;timestamp;temperature;humidity
37594;DHT22;23441;50.856;6.076;2023-07-08T00:00:19;19.90;92.80
37594;DHT22;23441;50.856;6.076;2023-07-08T00:02:45;19.90;92.30
37594;DHT22;23441;50.856;6.076;2023-07-08T00:05:12;19.90;92.20
37594;DHT22;23441;50.856;6.076;2023-07-08T00:07:39;20.00;92.20
37594;DHT22;23441;50.856;6.076;2023-07-08T00:10:14;19.90;92.20
37594;DHT22;23441;50.856;6.076;2023-07-08T00:12:41;19.90;93.00
37594;DHT22;23441;50.856;6.076;2023-07-08T00:15:07;19.90;92.50
37594;DHT22;23441;50.856;6.076;2023-07-08T00:17:32;19.90;93.00
37594;DHT22;23441;50.856;6.076;2023-07-08T00:19:58;19.90;93.70
37594;DHT22;23441;50.856;6.076;2023-07-08T00:22:24;19.90;93.50
37594;DHT22;23441;50.856;6.076;2023-07-08T00:24:50;20.00;93.10
37594;DHT22;23441;50.856;6.076;2023-07-08T00:27:15;20.10;93.30
37594;DHT22;23441;50.856;6.076;2023-07-08T00:29:41;20.10;93.40
37594;DHT22;23441;50.856;6.076;2023-07-08T00:32:12;20.20;92.60
37594;DHT22;23441;50.856;6.076;2023-07-08T00:34:38;20.20;92.50
37594;DHT22;23441;50.856;6.076;2023-07-08T00:37:04;20.20;92.30
37594;DHT22;23441;50.856;6.076;2023-07-08T00:39:31;20.20;92.30
37594;DHT22;23441;50.856;6.076;2023-07-08T00:41:59;20.20;92.00
37594;DHT22;23441;50.856;6.076;2023-07-08T00:44:25;20.30;91.30
37594;DHT22;23441;50.856;6.076;2023-07-08T00:47:12;20.30;91.10
37594;DHT22;23441;50.856;6.076;2023-07-08T00:49:56;20.40;90.20
37594;DHT22;23441;50.856;6.076;2023-07-08T00:54:53;20.30;90.70
37594;DHT22;23441;50.856;6.076;2023-07-08T00:57:20;20.30;91.10
37594;DHT22;23441;50.856;6.076;2023-07-08T00:59:57;20.20;91.10
37594;DHT22;23441;50.856;6.076;2023-07-08T01:02:25;20.20;90.80
37594;DHT22;23441;50.856;6.076;2023-07-08T01:05:22;20.20;91.00
37594;DHT22;23441;50.856;6.076;2023-07-08T01:07:52;20.20;91.00
37594;DHT22;23441;50.856;6.076;2023-07-08T01:10:28;20.20;91.20
37594;DHT22;23441;50.856;6.076;2023-07-08T01:13:00;20.10;91.00
37594;DHT22;23441;50.856;6.076;2023-07-08T01:15:33;20.10;91.30
37594;DHT22;23441;50.856;6.076;2023-07-08T01:18:01;20.00;91.00
37594;DHT22;23441;50.856;6.076;2023-07-08T01:20:27;20.00;91.70
37594;DHT22;23441;50.856;6.076;2023-07-08T01:22:53;20.00;91.40
37594;DHT22;23441;50.856;6.076;2023-07-08T01:25:18;19.90;91.20
37594;DHT22;23441;50.856;6.076;2023-07-08T01:27:49;19.90;91.20
37594;DHT22;23441;50.856;6.076;2023-07-08T01:30:16;19.90;90.80
37594;DHT22;23441;50.856;6.076;2023-07-08T01:32:48;19.90;90.90
37594;DHT22;23441;50.856;6.076;2023-07-08T01:35:15;19.90;90.80
37594;DHT22;23441;50.856;6.076;2023-07-08T01:37:44;19.90;91.10
37594;DHT22;23441;50.856;6.076;2023-07-08T01:40:16;19.80;90.70
37594;DHT22;23441;50.856;6.076;2023-07-08T01:42:41;19.80;90.80
37594;DHT22;23441;50.856;6.076;2023-07-08T01:45:15;19.80;90.90
37594;DHT22;23441;50.856;6.076;2023-07-08T01:47:44;19.80;90.60
37594;DHT22;23441;50.856;6.076;2023-07-08T01:50:11;19.80;90.70
37594;DHT22;23441;50.856;6.076;2023-07-08T01:52:37;19.70;91.10
37594;DHT22;23441;50.856;6.076;2023-07-08T01:55:03;19.70;90.90
37594;DHT22;23441;50.856;6.076;2023-07-08T01:57:29;19.70;91.20
37594;DHT22;23441;50.856;6.076;2023-07-08T01:59:55;19.70;91.60
37594;DHT22;23441;50.856;6.076;2023-07-08T02:02:20;19.70;91.40
37594;DHT22;23441;50.856;6.076;2023-07-08T02:04:47;19.60;91.40
37594;DHT22;23441;50.856;6.076;2023-07-08T02:07:13;19.60;91.70
37594;DHT22;23441;50.856;6.076;2023-07-08T02:09:38;19.60;91.50
37594;DHT22;23441;50.856;6.076;2023-07-08T02:12:04;19.50;92.10
37594;DHT22;23441;50.856;6.076;2023-07-08T02:14:30;19.50;92.00
37594;DHT22;23441;50.856;6.076;2023-07-08T02:16:56;19.50;91.80
37594;DHT22;23441;50.856;6.076;2023-07-08T02:19:21;19.40;91.70
37594;DHT22;23441;50.856;6.076;2023-07-08T02:21:47;19.40;92.20
37594;DHT22;23441;50.856;6.076;2023-07-08T02:24:13;19.40;92.10
37594;DHT22;23441;50.856;6.076;2023-07-08T02:26:42;19.40;91.50
37594;DHT22;23441;50.856;6.076;2023-07-08T02:29:08;19.40;92.10
37594;DHT22;23441;50.856;6.076;2023-07-08T02:31:33;19.30;91.50
37594;DHT22;23441;50.856;6.076;2023-07-08T02:33:59;19.30;91.40
37594;DHT22;23441;50.856;6.076;2023-07-08T02:36:26;19.30;91.80
37594;DHT22;23441;50.856;6.076;2023-07-08T02:38:52;19.20;91.50
37594;DHT22;23441;50.856;6.076;2023-07-08T02:41:18;19.10;91.50
37594;DHT22;23441;50.856;6.076;2023-07-08T02:43:43;19.00;91.30
37594;DHT22;23441;50.856;6.076;2023-07-08T02:46:09;18.90;91.30
37594;DHT22;23441;50.856;6.076;2023-07-08T02:48:35;18.90;91.40
37594;DHT22;23441;50.856;6.076;2023-07-08T02:51:01;18.70;91.50
37594;DHT22;23441;50.856;6.076;2023-07-08T02:53:27;18.70;92.10
37594;DHT22;23441;50.856;6.076;2023-07-08T02:55:53;18.60;92.10
37594;DHT22;23441;50.856;6.076;2023-07-08T02:58:19;18.50;92.10
37594;DHT22;23441;50.856;6.076;2023-07-08T03:00:44;18.50;92.20
37594;DHT22;23441;50.856;6.076;2023-07-08T03:03:10;18.50;92.10
37594;DHT22;23441;50.856;6.076;2023-07-08T03:05:36;18.40;92.50
37594;DHT22;23441;50.856;6.076;2023-07-08T03:08:02;18.30;92.40
37594;DHT22;23441;50.856;6.076;2023-07-08T03:10:27;18.20;92.80
37594;DHT22;23441;50.856;6.076;2023-07-08T03:12:53;18.20;93.20
37594;DHT22;23441;50.856;6.076;2023-07-08T03:15:18;18.10;93.70
37594;DHT22;23441;50.856;6.076;2023-07-08T03:17:44;18.00;94.00
37594;DHT22;23441;50.856;6.076;2023-07-08T03:20:11;18.00;94.10
37594;DHT22;23441;50.856;6.076;2023-07-08T03:22:37;17.90;94.00
37594;DHT22;23441;50.856;6.076;2023-07-08T03:25:03;17.90;93.80
37594;DHT22;23441;50.856;6.076;2023-07-08T03:27:29;17.80;94.10
37594;DHT22;23441;50.856;6.076;2023-07-08T03:29:54;17.70;94.50
37594;DHT22;23441;50.856;6.076;2023-07-08T03:32:20;17.70;94.10
37594;DHT22;23441;50.856;6.076;2023-07-08T03:34:45;17.70;94.20
37594;DHT22;23441;50.856;6.076;2023-07-08T03:37:11;17.70;94.10
37594;DHT22;23441;50.856;6.076;2023-07-08T03:39:37;17.60;94.40
37594;DHT22;23441;50.856;6.076;2023-07-08T03:42:02;17.60;94.80
37594;DHT22;23441;50.856;6.076;2023-07-08T03:44:29;17.50;94.90
37594;DHT22;23441;50.856;6.076;2023-07-08T03:46:55;17.50;95.70
37594;DHT22;23441;50.856;6.076;2023-07-08T03:49:22;17.60;95.90
37594;DHT22;23441;50.856;6.076;2023-07-08T03:51:53;17.70;95.90
37594;DHT22;23441;50.856;6.076;2023-07-08T03:54:23;17.70;95.80
37594;DHT22;23441;50.856;6.076;2023-07-08T03:56:49;17.70;95.60
37594;DHT22;23441;50.856;6.076;2023-07-08T03:59:15;17.80;95.50
37594;DHT22;23441;50.856;6.076;2023-07-08T04:01:41;17.90;95.50
37594;DHT22;23441;50.856;6.076;2023-07-08T04:04:09;17.90;95.30
37594;DHT22;23441;50.856;6.076;2023-07-08T04:06:36;17.90;95.20
37594;DHT22;23441;50.856;6.076;2023-07-08T04:09:02;17.90;95.40
37594;DHT22;23441;50.856;6.076;2023-07-08T04:11:28;18.00;95.30
37594;DHT22;23441;50.856;6.076;2023-07-08T04:13:53;18.00;94.70
37594;DHT22;23441;50.856;6.076;2023-07-08T04:16:25;18.00;94.70
37594;DHT22;23441;50.856;6.076;2023-07-08T04:18:54;17.90;95.00
37594;DHT22;23441;50.856;6.076;2023-07-08T04:21:21;18.00;95.00
37594;DHT22;23441;50.856;6.076;2023-07-08T04:23:48;18.00;95.00
37594;DHT22;23441;50.856;6.076;2023-07-08T04:26:14;18.00;95.40
37594;DHT22;23441;50.856;6.076;2023-07-08T04:28:40;18.10;95.50
37594;DHT22;23441;50.856;6.076;2023-07-08T04:31:06;18.10;95.40
37594;DHT22;23441;50.856;6.076;2023-07-08T04:33:32;18.10;95.20
37594;DHT22;23441;50.856;6.076;2023-07-08T04:35:57;18.20;95.80
37594;DHT22;23441;50.856;6.076;2023-07-08T04:38:24;18.20;95.50
37594;DHT22;23441;50.856;6.076;2023-07-08T04:40:51;18.30;95.20
37594;DHT22;23441;50.856;6.076;2023-07-08T04:43:18;18.40;95.30
37594;DHT22;23441;50.856;6.076;2023-07-08T04:45:49;18.50;96.00
37594;DHT22;23441;50.856;6.076;2023-07-08T04:48:17;18.50;96.30
37594;DHT22;23441;50.856;6.076;2023-07-08T04:50:45;18.60;95.90
37594;DHT22;23441;50.856;6.076;2023-07-08T04:53:13;18.60;95.40
37594;DHT22;23441;50.856;6.076;2023-07-08T04:55:44;18.60;95.20
37594;DHT22;23441;50.856;6.076;2023-07-08T04:58:10;18.70;95.30
37594;DHT22;23441;50.856;6.076;2023-07-08T05:00:36;18.70;95.40
37594;DHT22;23441;50.856;6.076;2023-07-08T05:03:02;18.70;95.30
37594;DHT22;23441;50.856;6.076;2023-07-08T05:05:27;18.70;95.30
37594;DHT22;23441;50.856;6.076;2023-07-08T05:07:53;18.80;95.20
37594;DHT22;23441;50.856;6.076;2023-07-08T05:10:19;18.80;95.70
37594;DHT22;23441;50.856;6.076;2023-07-08T05:12:45;18.80;95.30
37594;DHT22;23441;50.856;6.076;2023-07-08T05:15:11;19.00;95.30
37594;DHT22;23441;50.856;6.076;2023-07-08T05:17:37;19.10;95.60
37594;DHT22;23441;50.856;6.076;2023-07-08T05:20:08;19.20;95.20
37594;DHT22;23441;50.856;6.076;2023-07-08T05:22:34;19.50;95.00
37594;DHT22;23441;50.856;6.076;2023-07-08T05:25:00;19.80;94.60
37594;DHT22;23441;50.856;6.076;2023-07-08T05:27:26;20.40;94.60
37594;DHT22;23441;50.856;6.076;2023-07-08T05:29:52;21.40;93.30
37594;DHT22;23441;50.856;6.076;2023-07-08T05:32:18;22.70;92.30
37594;DHT22;23441;50.856;6.076;2023-07-08T05:34:44;23.00;91.30
37594;DHT22;23441;50.856;6.076;2023-07-08T05:37:11;23.00;89.90
37594;DHT22;23441;50.856;6.076;2023-07-08T05:39:37;22.70;90.60
37594;DHT22;23441;50.856;6.076;2023-07-08T05:42:02;22.40;91.40
37594;DHT22;23441;50.856;6.076;2023-07-08T05:44:28;22.50;91.90
37594;DHT22;23441;50.856;6.076;2023-07-08T05:46:54;22.50;91.90
37594;DHT22;23441;50.856;6.076;2023-07-08T05:49:20;22.40;92.30
37594;DHT22;23441;50.856;6.076;2023-07-08T05:51:45;22.50;91.50
37594;DHT22;23441;50.856;6.076;2023-07-08T05:54:11;22.50;92.40
37594;DHT22;23441;50.856;6.076;2023-07-08T05:56:37;22.40;92.50
37594;DHT22;23441;50.856;6.076;2023-07-08T05:59:03;22.60;93.20
37594;DHT22;23441;50.856;6.076;2023-07-08T06:01:29;22.90;92.50
37594;DHT22;23441;50.856;6.076;2023-07-08T06:03:55;23.40;92.50
37594;DHT22;23441;50.856;6.076;2023-07-08T06:06:24;25.10;91.60
37594;DHT22;23441;50.856;6.076;2023-07-08T06:08:49;26.20;90.40
37594;DHT22;23441;50.856;6.076;2023-07-08T06:11:16;27.20;87.30
37594;DHT22;23441;50.856;6.076;2023-07-08T06:13:42;27.70;84.20
37594;DHT22;23441;50.856;6.076;2023-07-08T06:16:07;28.10;85.30
37594;DHT22;23441;50.856;6.076;2023-07-08T06:18:33;28.50;84.80
37594;DHT22;23441;50.856;6.076;2023-07-08T06:20:59;29.00;83.10
37594;DHT22;23441;50.856;6.076;2023-07-08T06:23:25;29.70;80.70
37594;DHT22;23441;50.856;6.076;2023-07-08T06:25:51;30.20;80.90
37594;DHT22;23441;50.856;6.076;2023-07-08T06:28:17;30.50;81.60
37594;DHT22;23441;50.856;6.076;2023-07-08T06:30:44;30.70;82.40
37594;DHT22;23441;50.856;6.076;2023-07-08T06:33:09;30.80;80.60
37594;DHT22;23441;50.856;6.076;2023-07-08T06:35:37;31.20;79.70
37594;DHT22;23441;50.856;6.076;2023-07-08T06:38:03;31.60;78.80
37594;DHT22;23441;50.856;6.076;2023-07-08T06:40:28;31.70;78.10
37594;DHT22;23441;50.856;6.076;2023-07-08T06:42:54;32.00;77.80
37594;DHT22;23441;50.856;6.076;2023-07-08T06:45:20;32.20;78.10
37594;DHT22;23441;50.856;6.076;2023-07-08T06:47:45;32.40;76.70
37594;DHT22;23441;50.856;6.076;2023-07-08T06:50:11;33.30;79.10
37594;DHT22;23441;50.856;6.076;2023-07-08T06:52:37;33.10;77.10
37594;DHT22;23441;50.856;6.076;2023-07-08T06:55:06;33.10;77.30
37594;DHT22;23441;50.856;6.076;2023-07-08T06:57:32;33.40;77.90
37594;DHT22;23441;50.856;6.076;2023-07-08T06:59:57;33.30;75.20
37594;DHT22;23441;50.856;6.076;2023-07-08T07:02:24;33.60;72.60
37594;DHT22;23441;50.856;6.076;2023-07-08T07:04:49;34.00;74.40
37594;DHT22;23441;50.856;6.076;2023-07-08T07:07:15;34.40;74.50
37594;DHT22;23441;50.856;6.076;2023-07-08T07:09:41;34.50;73.70
37594;DHT22;23441;50.856;6.076;2023-07-08T07:12:07;34.20;72.40
37594;DHT22;23441;50.856;6.076;2023-07-08T07:14:33;34.10;72.20
37594;DHT22;23441;50.856;6.076;2023-07-08T07:16:59;34.80;73.00
37594;DHT22;23441;50.856;6.076;2023-07-08T07:19:25;34.90;72.40
37594;DHT22;23441;50.856;6.076;2023-07-08T07:21:51;35.20;71.10
37594;DHT22;23441;50.856;6.076;2023-07-08T07:24:17;35.60;67.70
37594;DHT22;23441;50.856;6.076;2023-07-08T07:26:43;35.80;72.10
37594;DHT22;23441;50.856;6.076;2023-07-08T07:29:08;35.90;71.50
37594;DHT22;23441;50.856;6.076;2023-07-08T07:31:34;35.70;70.50
37594;DHT22;23441;50.856;6.076;2023-07-08T07:34:00;35.70;69.80
37594;DHT22;23441;50.856;6.076;2023-07-08T07:36:27;36.20;68.90
37594;DHT22;23441;50.856;6.076;2023-07-08T07:38:52;35.90;68.50
37594;DHT22;23441;50.856;6.076;2023-07-08T07:41:18;36.10;67.30
37594;DHT22;23441;50.856;6.076;2023-07-08T07:43:43;35.40;67.70
37594;DHT22;23441;50.856;6.076;2023-07-08T07:46:09;34.80;70.80
37594;DHT22;23441;50.856;6.076;2023-07-08T07:48:36;34.40;70.00
37594;DHT22;23441;50.856;6.076;2023-07-08T07:51:02;34.10;71.30
37594;DHT22;23441;50.856;6.076;2023-07-08T07:53:28;33.40;73.20
37594;DHT22;23441;50.856;6.076;2023-07-08T07:56:01;34.00;71.70
37594;DHT22;23441;50.856;6.076;2023-07-08T07:58:27;34.20;71.10
37594;DHT22;23441;50.856;6.076;2023-07-08T08:00:53;34.40;72.30
37594;DHT22;23441;50.856;6.076;2023-07-08T08:03:20;35.00;70.10
37594;DHT22;23441;50.856;6.076;2023-07-08T08:05:46;35.60;71.90
37594;DHT22;23441;50.856;6.076;2023-07-08T08:08:12;35.90;69.60
37594;DHT22;23441;50.856;6.076;2023-07-08T08:10:37;36.10;70.10
37594;DHT22;23441;50.856;6.076;2023-07-08T08:13:03;36.70;69.40
37594;DHT22;23441;50.856;6.076;2023-07-08T08:15:29;36.50;68.40
37594;DHT22;23441;50.856;6.076;2023-07-08T08:17:55;36.80;69.20
37594;DHT22;23441;50.856;6.076;2023-07-08T08:20:22;37.10;68.90
37594;DHT22;23441;50.856;6.076;2023-07-08T08:22:49;37.90;67.70
37594;DHT22;23441;50.856;6.076;2023-07-08T08:25:16;37.60;66.40
37594;DHT22;23441;50.856;6.076;2023-07-08T08:27:42;37.00;66.20
37594;DHT22;23441;50.856;6.076;2023-07-08T08:30:09;36.60;67.80
37594;DHT22;23441;50.856;6.076;2023-07-08T08:32:35;37.10;70.40
37594;DHT22;23441;50.856;6.076;2023-07-08T08:35:01;37.60;68.70
37594;DHT22;23441;50.856;6.076;2023-07-08T08:37:27;37.90;67.20
37594;DHT22;23441;50.856;6.076;2023-07-08T08:39:53;38.80;65.20
37594;DHT22;23441;50.856;6.076;2023-07-08T08:42:32;38.60;67.20
37594;DHT22;23441;50.856;6.076;2023-07-08T08:45:00;38.20;67.10
37594;DHT22;23441;50.856;6.076;2023-07-08T08:48:00;38.10;69.10
37594;DHT22;23441;50.856;6.076;2023-07-08T08:50:45;39.00;66.10
37594;DHT22;23441;50.856;6.076;2023-07-08T08:53:14;39.60;68.40
37594;DHT22;23441;50.856;6.076;2023-07-08T08:55:41;40.00;64.00
37594;DHT22;23441;50.856;6.076;2023-07-08T08:58:43;40.50;64.30
37594;DHT22;23441;50.856;6.076;2023-07-08T09:01:13;40.00;64.50
37594;DHT22;23441;50.856;6.076;2023-07-08T09:04:05;39.10;65.60
37594;DHT22;23441;50.856;6.076;2023-07-08T09:06:35;38.80;64.20
37594;DHT22;23441;50.856;6.076;2023-07-08T09:09:41;38.90;65.10
37594;DHT22;23441;50.856;6.076;2023-07-08T09:12:22;40.00;66.00
37594;DHT22;23441;50.856;6.076;2023-07-08T09:14:50;40.30;64.10
37594;DHT22;23441;50.856;6.076;2023-07-08T09:17:27;39.50;64.40
37594;DHT22;23441;50.856;6.076;2023-07-08T09:20:24;39.30;66.40
37594;DHT22;23441;50.856;6.076;2023-07-08T09:23:01;38.80;66.70
37594;DHT22;23441;50.856;6.076;2023-07-08T09:27:57;39.50;63.30
37594;DHT22;23441;50.856;6.076;2023-07-08T09:30:23;38.90;62.50
37594;DHT22;23441;50.856;6.076;2023-07-08T09:32:51;38.80;66.20
37594;DHT22;23441;50.856;6.076;2023-07-08T09:35:29;39.00;65.20
37594;DHT22;23441;50.856;6.076;2023-07-08T09:38:07;39.00;64.30
37594;DHT22;23441;50.856;6.076;2023-07-08T09:40:34;38.90;64.30
37594;DHT22;23441;50.856;6.076;2023-07-08T09:43:24;38.50;63.30
37594;DHT22;23441;50.856;6.076;2023-07-08T09:45:50;38.00;65.00
37594;DHT22;23441;50.856;6.076;2023-07-08T09:48:25;37.40;64.40
37594;DHT22;23441;50.856;6.076;2023-07-08T09:50:53;36.90;66.20
37594;DHT22;23441;50.856;6.076;2023-07-08T09:53:19;36.40;66.00
37594;DHT22;23441;50.856;6.076;2023-07-08T09:55:45;35.70;68.80
37594;DHT22;23441;50.856;6.076;2023-07-08T09:58:15;35.00;67.30
37594;DHT22;23441;50.856;6.076;2023-07-08T10:00:42;35.00;66.80
37594;DHT22;23441;50.856;6.076;2023-07-08T10:03:21;35.30;68.40
37594;DHT22;23441;50.856;6.076;2023-07-08T10:05:49;36.00;66.50
37594;DHT22;23441;50.856;6.076;2023-07-08T10:08:20;36.30;62.40
37594;DHT22;23441;50.856;6.076;2023-07-08T10:10:48;36.40;63.50
37594;DHT22;23441;50.856;6.076;2023-07-08T10:18:40;36.10;62.80
37594;DHT22;23441;50.856;6.076;2023-07-08T10:30:03;37.50;63.00
37594;DHT22;23441;50.856;6.076;2023-07-08T10:32:55;37.10;63.20
37594;DHT22;23441;50.856;6.076;2023-07-08T10:35:39;36.90;64.10
37594;DHT22;23441;50.856;6.076;2023-07-08T10:38:36;36.70;63.60
37594;DHT22;23441;50.856;6.076;2023-07-08T10:41:15;36.40;65.60
37594;DHT22;23441;50.856;6.076;2023-07-08T10:59:34;36.20;65.30
37594;DHT22;23441;50.856;6.076;2023-07-08T11:10:06;35.70;67.30
37594;DHT22;23441;50.856;6.076;2023-07-08T11:12:38;35.50;67.00
37594;DHT22;23441;50.856;6.076;2023-07-08T11:18:02;34.40;65.50
37594;DHT22;23441;50.856;6.076;2023-07-08T11:23:26;35.00;65.80
37594;DHT22;23441;50.856;6.076;2023-07-08T11:28:29;35.50;65.30
37594;DHT22;23441;50.856;6.076;2023-07-08T11:30:57;35.60;66.50
37594;DHT22;23441;50.856;6.076;2023-07-08T11:33:26;35.40;62.80
37594;DHT22;23441;50.856;6.076;2023-07-08T11:35:56;35.50;65.30
37594;DHT22;23441;50.856;6.076;2023-07-08T11:38:25;35.70;66.10
37594;DHT22;23441;50.856;6.076;2023-07-08T11:41:12;35.80;64.00
37594;DHT22;23441;50.856;6.076;2023-07-08T11:43:53;35.70;64.60
37594;DHT22;23441;50.856;6.076;2023-07-08T11:46:29;35.60;66.80
37594;DHT22;23441;50.856;6.076;2023-07-08T11:49:02;35.70;64.60
37594;DHT22;23441;50.856;6.076;2023-07-08T11:51:37;35.90;63.00
37594;DHT22;23441;50.856;6.076;2023-07-08T11:54:17;36.10;63.20
37594;DHT22;23441;50.856;6.076;2023-07-08T11:59:33;36.30;64.40
37594;DHT22;23441;50.856;6.076;2023-07-08T12:07:20;36.50;62.90
37594;DHT22;23441;50.856;6.076;2023-07-08T12:10:05;35.80;62.60
37594;DHT22;23441;50.856;6.076;2023-07-08T12:12:36;35.90;64.10
37594;DHT22;23441;50.856;6.076;2023-07-08T12:15:23;36.20;63.90
37594;DHT22;23441;50.856;6.076;2023-07-08T12:17:54;36.50;65.90
37594;DHT22;23441;50.856;6.076;2023-07-08T12:20:30;36.70;63.70
37594;DHT22;23441;50.856;6.076;2023-07-08T12:22:56;37.10;63.20
37594;DHT22;23441;50.856;6.076;2023-07-08T12:25:29;36.70;64.00
37594;DHT22;23441;50.856;6.076;2023-07-08T12:27:55;37.20;63.80
37594;DHT22;23441;50.856;6.076;2023-07-08T12:30:21;36.60;61.40
37594;DHT22;23441;50.856;6.076;2023-07-08T12:32:46;36.40;62.50
37594;DHT22;23441;50.856;6.076;2023-07-08T12:35:30;36.50;62.90
37594;DHT22;23441;50.856;6.076;2023-07-08T12:38:02;36.90;66.30
37594;DHT22;23441;50.856;6.076;2023-07-08T12:40:29;37.40;68.20
37594;DHT22;23441;50.856;6.076;2023-07-08T12:42:56;37.50;60.60
37594;DHT22;23441;50.856;6.076;2023-07-08T12:45:23;36.30;61.00
37594;DHT22;23441;50.856;6.076;2023-07-08T12:47:50;36.50;65.90
37594;DHT22;23441;50.856;6.076;2023-07-08T12:50:16;36.80;63.90
37594;DHT22;23441;50.856;6.076;2023-07-08T12:52:46;36.60;63.00
37594;DHT22;23441;50.856;6.076;2023-07-08T12:55:13;36.50;64.20
37594;DHT22;23441;50.856;6.076;2023-07-08T12:57:42;36.00;61.00
37594;DHT22;23441;50.856;6.076;2023-07-08T13:00:31;36.20;66.40
37594;DHT22;23441;50.856;6.076;2023-07-08T13:03:27;36.60;65.50
37594;DHT22;23441;50.856;6.076;2023-07-08T13:05:55;36.50;60.30
37594;DHT22;23441;50.856;6.076;2023-07-08T13:08:23;36.40;65.80
37594;DHT22;23441;50.856;6.076;2023-07-08T13:10:52;36.70;62.50
37594;DHT22;23441;50.856;6.076;2023-07-08T13:13:33;36.70;65.00
37594;DHT22;23441;50.856;6.076;2023-07-08T13:16:00;37.10;62.80
37594;DHT22;23441;50.856;6.076;2023-07-08T13:18:35;36.90;61.80
37594;DHT22;23441;50.856;6.076;2023-07-08T13:21:03;36.90;61.10
37594;DHT22;23441;50.856;6.076;2023-07-08T13:23:30;36.70;61.10
37594;DHT22;23441;50.856;6.076;2023-07-08T13:25:56;36.70;66.20
37594;DHT22;23441;50.856;6.076;2023-07-08T13:28:48;36.20;61.80
37594;DHT22;23441;50.856;6.076;2023-07-08T13:31:23;35.80;61.70
37594;DHT22;23441;50.856;6.076;2023-07-08T13:33:54;35.70;66.60
37594;DHT22;23441;50.856;6.076;2023-07-08T13:36:31;35.70;67.00
37594;DHT22;23441;50.856;6.076;2023-07-08T13:39:06;35.80;61.60
37594;DHT22;23441;50.856;6.076;2023-07-08T13:41:33;35.60;62.10
37594;DHT22;23441;50.856;6.076;2023-07-08T13:44:07;35.30;63.30
37594;DHT22;23441;50.856;6.076;2023-07-08T13:47:01;35.30;62.10
37594;DHT22;23441;50.856;6.076;2023-07-08T13:49:38;35.20;61.60
37594;DHT22;23441;50.856;6.076;2023-07-08T13:54:50;34.90;63.10
37594;DHT22;23441;50.856;6.076;2023-07-08T13:57:21;34.60;65.80
37594;DHT22;23441;50.856;6.076;2023-07-08T13:59:47;34.70;65.40
37594;DHT22;23441;50.856;6.076;2023-07-08T14:02:22;34.70;63.50
37594;DHT22;23441;50.856;6.076;2023-07-08T14:04:49;34.80;64.60
37594;DHT22;23441;50.856;6.076;2023-07-08T14:07:22;34.70;62.40
37594;DHT22;23441;50.856;6.076;2023-07-08T14:09:48;34.70;64.20
37594;DHT22;23441;50.856;6.076;2023-07-08T14:12:13;34.70;67.30
37594;DHT22;23441;50.856;6.076;2023-07-08T14:14:39;34.80;64.90
37594;DHT22;23441;50.856;6.076;2023-07-08T14:17:09;35.00;64.10
37594;DHT22;23441;50.856;6.076;2023-07-08T14:19:36;34.90;65.20
37594;DHT22;23441;50.856;6.076;2023-07-08T14:24:35;34.60;65.90
37594;DHT22;23441;50.856;6.076;2023-07-08T14:27:01;34.50;63.80
37594;DHT22;23441;50.856;6.076;2023-07-08T14:29:26;34.40;64.10
37594;DHT22;23441;50.856;6.076;2023-07-08T14:31:52;34.40;64.70
37594;DHT22;23441;50.856;6.076;2023-07-08T14:34:23;34.20;64.30
37594;DHT22;23441;50.856;6.076;2023-07-08T14:36:49;33.90;65.20
37594;DHT22;23441;50.856;6.076;2023-07-08T14:39:18;33.70;64.90
37594;DHT22;23441;50.856;6.076;2023-07-08T14:41:46;33.60;65.90
37594;DHT22;23441;50.856;6.076;2023-07-08T14:44:46;33.50;65.80
37594;DHT22;23441;50.856;6.076;2023-07-08T14:47:14;33.60;64.60
37594;DHT22;23441;50.856;6.076;2023-07-08T14:49:40;33.60;66.90
37594;DHT22;23441;50.856;6.076;2023-07-08T14:52:07;33.40;64.40
37594;DHT22;23441;50.856;6.076;2023-07-08T14:54:32;33.20;65.80
37594;DHT22;23441;50.856;6.076;2023-07-08T14:56:59;33.10;65.70
37594;DHT22;23441;50.856;6.076;2023-07-08T14:59:28;33.00;66.20
37594;DHT22;23441;50.856;6.076;2023-07-08T15:01:57;32.70;66.50
37594;DHT22;23441;50.856;6.076;2023-07-08T15:04:24;32.60;67.20
37594;DHT22;23441;50.856;6.076;2023-07-08T15:06:50;32.60;67.00
37594;DHT22;23441;50.856;6.076;2023-07-08T15:09:17;32.40;67.20
37594;DHT22;23441;50.856;6.076;2023-07-08T15:11:44;32.40;68.00
37594;DHT22;23441;50.856;6.076;2023-07-08T15:14:17;32.40;68.10
37594;DHT22;23441;50.856;6.076;2023-07-08T15:16:43;32.30;68.90
37594;DHT22;23441;50.856;6.076;2023-07-08T15:19:11;32.30;69.90
37594;DHT22;23441;50.856;6.076;2023-07-08T15:21:38;32.30;69.40
37594;DHT22;23441;50.856;6.076;2023-07-08T15:24:06;32.10;69.30
37594;DHT22;23441;50.856;6.076;2023-07-08T15:26:32;32.20;69.90
37594;DHT22;23441;50.856;6.076;2023-07-08T15:28:57;32.10;70.00
37594;DHT22;23441;50.856;6.076;2023-07-08T15:31:26;32.10;69.70
37594;DHT22;23441;50.856;6.076;2023-07-08T15:33:53;32.10;69.10
37594;DHT22;23441;50.856;6.076;2023-07-08T15:36:18;32.10;68.80
37594;DHT22;23441;50.856;6.076;2023-07-08T15:38:44;32.20;68.50
37594;DHT22;23441;50.856;6.076;2023-07-08T15:41:22;32.20;69.60
37594;DHT22;23441;50.856;6.076;2023-07-08T15:43:49;32.10;72.10
37594;DHT22;23441;50.856;6.076;2023-07-08T15:46:17;32.10;71.30
37594;DHT22;23441;50.856;6.076;2023-07-08T15:48:43;32.00;73.00
37594;DHT22;23441;50.856;6.076;2023-07-08T15:51:13;31.90;72.90
37594;DHT22;23441;50.856;6.076;2023-07-08T15:53:39;31.40;73.40
37594;DHT22;23441;50.856;6.076;2023-07-08T15:56:06;31.30;74.50
37594;DHT22;23441;50.856;6.076;2023-07-08T15:58:33;31.40;74.90
37594;DHT22;23441;50.856;6.076;2023-07-08T16:01:01;31.50;74.10
37594;DHT22;23441;50.856;6.076;2023-07-08T16:03:30;31.70;74.40
37594;DHT22;23441;50.856;6.076;2023-07-08T16:05:57;31.70;74.50
37594;DHT22;23441;50.856;6.076;2023-07-08T16:08:23;31.80;74.70
37594;DHT22;23441;50.856;6.076;2023-07-08T16:10:57;32.00;76.50
37594;DHT22;23441;50.856;6.076;2023-07-08T16:13:26;32.50;75.70
37594;DHT22;23441;50.856;6.076;2023-07-08T16:15:53;32.50;72.80
37594;DHT22;23441;50.856;6.076;2023-07-08T16:18:19;32.30;74.50
37594;DHT22;23441;50.856;6.076;2023-07-08T16:20:45;32.20;73.00
37594;DHT22;23441;50.856;6.076;2023-07-08T16:23:11;32.10;72.90
37594;DHT22;23441;50.856;6.076;2023-07-08T16:25:45;32.20;73.40
37594;DHT22;23441;50.856;6.076;2023-07-08T16:28:32;31.90;72.50
37594;DHT22;23441;50.856;6.076;2023-07-08T16:30:59;32.10;73.40
37594;DHT22;23441;50.856;6.076;2023-07-08T16:33:25;32.10;72.60
37594;DHT22;23441;50.856;6.076;2023-07-08T16:35:51;32.10;74.00
37594;DHT22;23441;50.856;6.076;2023-07-08T16:38:16;32.20;73.10
37594;DHT22;23441;50.856;6.076;2023-07-08T16:40:42;32.20;73.40
37594;DHT22;23441;50.856;6.076;2023-07-08T16:43:21;32.30;75.70
37594;DHT22;23441;50.856;6.076;2023-07-08T16:45:48;32.40;71.10